createdAt,value
2019-05-01T00:00:29.924Z,86.09
2019-05-01T00:02:54.623Z,85.92
2019-05-01T00:05:13.172Z,85.66
2019-05-01T00:07:23.186Z,85.20
2019-05-01T00:09:32.041Z,85.66
2019-05-01T00:11:40.296Z,84.72
2019-05-01T00:13:48.184Z,84.91
2019-05-01T00:15:56.698Z,84.48
2019-05-01T00:18:05.109Z,84.33
2019-05-01T00:20:13.658Z,84.33
2019-05-01T00:22:21.813Z,84.69
2019-05-01T00:24:29.587Z,84.02
2019-05-01T00:26:37.793Z,85.36
2019-05-01T00:28:45.662Z,86.01
2019-05-01T00:30:53.706Z,85.89
2019-05-01T00:33:01.692Z,86.08
2019-05-01T00:35:09.880Z,86.71
2019-05-01T00:37:18.051Z,87.16
2019-05-01T00:39:26.993Z,87.00
2019-05-01T00:41:34.936Z,86.57
2019-05-01T00:43:42.833Z,86.50
2019-05-01T00:45:50.752Z,86.64
2019-05-01T00:47:59.622Z,86.36
2019-05-01T00:50:09.068Z,86.45
2019-05-01T00:52:17.373Z,86.40
2019-05-01T00:54:25.515Z,86.54
2019-05-01T00:56:41.390Z,86.84
2019-05-01T00:58:52.266Z,86.17
2019-05-01T01:01:18.577Z,86.20
2019-05-01T01:03:26.922Z,86.02
2019-05-01T01:05:35.237Z,86.25
2019-05-01T01:07:43.220Z,86.08
2019-05-01T01:09:51.571Z,86.09
2019-05-01T01:12:00.745Z,86.14
2019-05-01T01:14:08.762Z,86.12
2019-05-01T01:16:17.189Z,85.92
2019-05-01T01:18:25.045Z,85.87
2019-05-01T01:20:32.924Z,85.79
2019-05-01T01:22:41.174Z,85.65
2019-05-01T01:24:49.556Z,85.58
2019-05-01T01:26:57.870Z,85.66
2019-05-01T01:29:05.818Z,85.81
2019-05-01T01:31:13.784Z,85.67
2019-05-01T01:33:22.752Z,85.48
2019-05-01T01:35:30.539Z,85.32
2019-05-01T01:37:38.519Z,84.50
2019-05-01T01:39:46.441Z,84.73
2019-05-01T01:41:56.008Z,84.70
2019-05-01T01:44:15.442Z,84.40
2019-05-01T01:46:25.050Z,84.93
2019-05-01T01:48:33.074Z,84.57
2019-05-01T01:50:45.068Z,85.33
2019-05-01T01:52:54.318Z,85.41
2019-05-01T01:55:02.555Z,85.55
2019-05-01T01:57:11.047Z,84.68
2019-05-01T01:59:20.163Z,85.42
2019-05-01T02:01:29.912Z,85.74
2019-05-01T02:03:42.508Z,85.83
2019-05-01T02:05:50.615Z,85.82
2019-05-01T02:07:58.528Z,85.43
2019-05-01T02:10:07.915Z,85.19
2019-05-01T02:12:16.463Z,84.87
2019-05-01T02:14:24.428Z,84.39
2019-05-01T02:16:32.568Z,84.85
2019-05-01T02:18:40.341Z,84.88
2019-05-01T02:20:48.210Z,85.87
2019-05-01T02:22:56.219Z,85.78
2019-05-01T02:25:06.270Z,85.77
2019-05-01T02:27:18.911Z,85.80
2019-05-01T02:29:31.378Z,85.95
2019-05-01T02:31:45.221Z,86.12
2019-05-01T02:33:55.252Z,86.06
2019-05-01T02:36:04.558Z,86.22
2019-05-01T02:38:15.593Z,86.47
2019-05-01T02:40:42.927Z,86.54
2019-05-01T02:42:52.357Z,86.69
2019-05-01T02:45:02.040Z,86.79
2019-05-01T02:47:15.934Z,86.51
2019-05-01T02:49:37.194Z,86.42
2019-05-01T02:51:45.919Z,86.27
2019-05-01T02:53:55.621Z,86.42
2019-05-01T02:56:21.901Z,86.32
2019-05-01T02:58:30.021Z,86.55
2019-05-01T03:00:38.120Z,86.20
2019-05-01T03:02:46.176Z,86.25
2019-05-01T03:04:55.178Z,86.48
2019-05-01T03:07:04.756Z,86.53
2019-05-01T03:09:12.719Z,86.46
2019-05-01T03:11:20.897Z,86.47
2019-05-01T03:13:29.410Z,86.72
2019-05-01T03:15:38.249Z,85.71
2019-05-01T03:17:54.019Z,86.77
2019-05-01T03:20:07.602Z,86.88
2019-05-01T03:22:20.161Z,86.80
2019-05-01T03:24:28.811Z,86.76
2019-05-01T03:26:37.125Z,86.86
2019-05-01T03:28:46.634Z,87.01
2019-05-01T03:30:55.060Z,86.35
2019-05-01T03:33:04.302Z,86.00
2019-05-01T03:35:12.479Z,86.53
2019-05-01T03:37:20.698Z,86.73
2019-05-01T03:39:29.928Z,86.73
2019-05-01T03:41:37.735Z,86.46
2019-05-01T03:43:45.711Z,86.26
2019-05-01T03:45:54.032Z,86.43
2019-05-01T03:48:02.174Z,86.55
2019-05-01T03:50:10.183Z,85.64
2019-05-01T03:52:18.942Z,85.71
2019-05-01T03:54:27.679Z,86.88
2019-05-01T03:56:35.997Z,88.54
2019-05-01T03:58:44.978Z,88.19
2019-05-01T04:01:01.432Z,88.30
2019-05-01T04:03:21.187Z,87.99
2019-05-01T04:05:29.146Z,87.72
2019-05-01T04:07:37.805Z,87.68
2019-05-01T04:09:45.813Z,87.55
2019-05-01T04:11:53.903Z,87.91
2019-05-01T04:14:02.033Z,87.44
2019-05-01T04:16:13.684Z,87.37
2019-05-01T04:18:22.376Z,87.56
2019-05-01T04:20:31.919Z,87.79
2019-05-01T04:22:39.763Z,87.87
2019-05-01T04:24:49.086Z,87.71
2019-05-01T04:26:58.055Z,87.64
2019-05-01T04:29:15.086Z,87.49
2019-05-01T04:31:25.032Z,87.24
2019-05-01T04:33:34.573Z,86.97
2019-05-01T04:35:52.244Z,86.38
2019-05-01T04:38:01.052Z,85.81
2019-05-01T04:40:09.218Z,85.06
2019-05-01T04:42:17.356Z,84.89
2019-05-01T04:44:25.403Z,85.11
2019-05-01T04:46:33.778Z,84.95
2019-05-01T04:48:42.192Z,84.55
2019-05-01T04:50:50.228Z,84.61
2019-05-01T04:52:59.806Z,84.99
2019-05-01T04:55:09.380Z,84.51
2019-05-01T04:57:17.620Z,84.51
2019-05-01T04:59:25.682Z,84.06
2019-05-01T05:01:52.584Z,83.46
2019-05-01T05:04:01.290Z,82.78
2019-05-01T05:06:09.780Z,82.14
2019-05-01T05:08:18.356Z,81.52
2019-05-01T05:10:26.250Z,78.43
2019-05-01T05:12:48.050Z,78.43
2019-05-01T05:15:11.615Z,80.47
2019-05-01T05:17:21.052Z,80.20
2019-05-01T05:19:28.983Z,80.36
2019-05-01T05:21:37.136Z,78.18
2019-05-01T05:23:45.363Z,76.61
2019-05-01T05:25:54.108Z,77.02
2019-05-01T05:28:03.982Z,75.52
2019-05-01T05:30:12.099Z,75.93
2019-05-01T05:32:21.949Z,75.20
2019-05-01T05:34:30.589Z,76.24
2019-05-01T05:36:39.701Z,75.46
2019-05-01T05:38:52.616Z,75.02
2019-05-01T05:41:01.726Z,73.36
2019-05-01T05:43:10.244Z,73.41
2019-05-01T05:45:19.050Z,73.08
2019-05-01T05:47:27.462Z,72.96
2019-05-01T05:49:35.486Z,72.62
2019-05-01T05:51:48.808Z,72.82
2019-05-01T05:54:02.193Z,71.04
2019-05-01T05:56:19.072Z,69.65
2019-05-01T05:58:38.390Z,70.02
2019-05-01T06:00:56.150Z,68.24
2019-05-01T06:03:31.022Z,68.09
2019-05-01T06:05:46.626Z,68.72
2019-05-01T06:08:12.460Z,67.58
2019-05-01T06:10:24.434Z,65.66
2019-05-01T06:12:49.763Z,66.15
2019-05-01T06:15:17.909Z,63.90
2019-05-01T06:17:36.928Z,65.56
2019-05-01T06:19:49.664Z,63.06
2019-05-01T06:22:10.215Z,61.92
2019-05-01T06:24:23.306Z,59.74
2019-05-01T06:26:37.242Z,59.93
2019-05-01T06:28:43.225Z,58.84
2019-05-01T06:30:51.250Z,60.04
2019-05-01T06:33:04.141Z,59.92
2019-05-01T06:35:10.735Z,56.81
2019-05-01T06:37:21.008Z,57.14
2019-05-01T06:39:28.944Z,56.84
2019-05-01T06:41:42.647Z,58.83
2019-05-01T06:43:57.092Z,55.99
2019-05-01T06:46:11.514Z,59.16
2019-05-01T06:48:21.515Z,56.40
2019-05-01T06:50:32.137Z,56.22
2019-05-01T06:52:41.304Z,57.96
2019-05-01T06:54:52.112Z,58.51
2019-05-01T06:57:03.172Z,59.19
2019-05-01T06:59:26.300Z,59.05
2019-05-01T07:01:33.670Z,60.96
2019-05-01T07:03:46.958Z,57.89
2019-05-01T07:05:54.530Z,58.64
2019-05-01T07:08:04.562Z,58.79
2019-05-01T07:10:12.766Z,61.66
2019-05-01T07:12:23.795Z,62.19
2019-05-01T07:14:33.570Z,55.54
2019-05-01T07:16:41.935Z,58.45
2019-05-01T07:18:51.862Z,56.98
2019-05-01T07:20:59.744Z,57.27
2019-05-01T07:23:07.863Z,56.93
2019-05-01T07:25:16.921Z,59.71
2019-05-01T07:27:25.202Z,56.54
2019-05-01T07:29:35.303Z,56.64
2019-05-01T07:31:43.352Z,57.71
2019-05-01T07:33:52.483Z,57.38
2019-05-01T07:36:01.375Z,56.29
2019-05-01T07:38:09.647Z,55.09
2019-05-01T07:40:20.801Z,57.46
2019-05-01T07:42:29.910Z,57.32
2019-05-01T07:44:47.829Z,55.89
2019-05-01T07:47:07.392Z,57.12
2019-05-01T07:49:17.651Z,56.56
2019-05-01T07:51:26.450Z,56.65
2019-05-01T07:53:35.147Z,56.53
2019-05-01T07:55:43.770Z,59.00
2019-05-01T07:57:51.715Z,57.27
2019-05-01T08:00:03.651Z,56.48
2019-05-01T08:02:11.683Z,55.00
2019-05-01T08:04:35.185Z,54.66
2019-05-01T08:06:29.066Z,54.63
2019-05-01T08:08:39.702Z,54.75
2019-05-01T08:10:46.867Z,54.97
2019-05-01T08:12:55.522Z,56.50
2019-05-01T08:15:06.581Z,57.58
2019-05-01T08:17:17.946Z,53.65
2019-05-01T08:19:39.389Z,54.34
2019-05-01T08:21:47.425Z,56.79
2019-05-01T08:23:55.252Z,54.66
2019-05-01T08:26:03.891Z,53.25
2019-05-01T08:28:14.227Z,57.42
2019-05-01T08:30:39.079Z,54.16
2019-05-01T08:32:54.792Z,53.76
2019-05-01T08:35:04.412Z,52.57
2019-05-01T08:37:12.813Z,53.61
2019-05-01T08:39:20.718Z,52.24
2019-05-01T08:41:31.822Z,52.08
2019-05-01T08:43:39.715Z,57.51
2019-05-01T08:45:52.009Z,50.23
2019-05-01T08:48:00.402Z,51.32
2019-05-01T08:50:19.918Z,49.06
2019-05-01T08:52:27.109Z,48.78
2019-05-01T08:54:36.047Z,48.16
2019-05-01T08:56:44.841Z,48.11
2019-05-01T08:58:53.094Z,48.87
2019-05-01T09:01:01.119Z,46.33
2019-05-01T09:03:09.027Z,47.60
2019-05-01T09:05:28.273Z,46.40
2019-05-01T09:07:26.823Z,45.29
2019-05-01T09:09:39.651Z,44.92
2019-05-01T09:11:45.001Z,47.03
2019-05-01T09:13:54.687Z,45.57
2019-05-01T09:16:03.383Z,45.51
2019-05-01T09:18:11.261Z,44.80
2019-05-01T09:20:19.187Z,48.61
2019-05-01T09:22:30.254Z,47.82
2019-05-01T09:24:38.175Z,47.76
2019-05-01T09:27:04.233Z,47.28
2019-05-01T09:29:16.121Z,48.89
2019-05-01T09:31:25.320Z,45.10
2019-05-01T09:33:33.259Z,45.45
2019-05-01T09:35:45.418Z,45.95
2019-05-01T09:37:52.047Z,46.26
2019-05-01T09:40:04.242Z,44.86
2019-05-01T09:42:10.004Z,46.94
2019-05-01T09:44:18.188Z,45.34
2019-05-01T09:46:26.344Z,44.87
2019-05-01T09:48:34.322Z,44.30
2019-05-01T09:50:43.881Z,47.86
2019-05-01T09:53:09.405Z,46.09
2019-05-01T09:55:23.098Z,45.40
2019-05-01T09:57:36.565Z,45.05
2019-05-01T09:59:43.653Z,47.46
2019-05-01T10:01:51.549Z,43.61
2019-05-01T10:03:59.638Z,49.76
2019-05-01T10:06:07.487Z,43.46
2019-05-01T10:08:15.460Z,42.85
2019-05-01T10:10:24.756Z,45.13
2019-05-01T10:12:34.051Z,43.86
2019-05-01T10:14:42.955Z,47.15
2019-05-01T10:17:13.426Z,41.55
2019-05-01T10:19:22.619Z,42.03
2019-05-01T10:21:31.460Z,43.74
2019-05-01T10:23:39.561Z,44.43
2019-05-01T10:25:50.996Z,44.13
2019-05-01T10:28:07.065Z,41.85
2019-05-01T10:30:17.699Z,43.38
2019-05-01T10:32:27.966Z,42.27
2019-05-01T10:34:42.935Z,44.86
2019-05-01T10:36:54.601Z,47.89
2019-05-01T10:39:01.821Z,45.07
2019-05-01T10:41:12.088Z,43.39
2019-05-01T10:43:20.378Z,44.16
2019-05-01T10:45:30.341Z,44.74
2019-05-01T10:47:41.838Z,43.54
2019-05-01T10:49:50.346Z,41.89
2019-05-01T10:51:59.298Z,45.56
2019-05-01T10:54:09.578Z,41.07
2019-05-01T10:56:22.488Z,39.75
2019-05-01T10:58:30.796Z,45.51
2019-05-01T11:00:40.949Z,43.82
2019-05-01T11:02:49.614Z,40.69
2019-05-01T11:04:58.954Z,42.46
2019-05-01T11:07:07.348Z,39.90
2019-05-01T11:09:17.021Z,42.49
2019-05-01T11:11:26.260Z,40.16
2019-05-01T11:13:34.576Z,43.78
2019-05-01T11:15:43.432Z,42.60
2019-05-01T11:17:51.614Z,38.38
2019-05-01T11:20:00.134Z,39.92
2019-05-01T11:22:11.821Z,41.43
2019-05-01T11:24:21.118Z,38.96
2019-05-01T11:26:30.491Z,42.85
2019-05-01T11:28:38.503Z,38.52
2019-05-01T11:30:46.639Z,40.83
2019-05-01T11:33:14.927Z,39.01
2019-05-01T11:35:29.993Z,40.03
2019-05-01T11:37:37.990Z,39.99
2019-05-01T11:39:50.274Z,43.23
2019-05-01T11:42:05.892Z,38.78
2019-05-01T11:44:13.867Z,38.67
2019-05-01T11:46:21.684Z,38.51
2019-05-01T11:48:30.274Z,38.56
2019-05-01T11:50:39.141Z,40.30
2019-05-01T11:52:47.115Z,38.56
2019-05-01T11:54:54.925Z,39.36
2019-05-01T11:57:02.673Z,39.09
2019-05-01T11:59:10.775Z,38.65
2019-05-01T12:01:20.776Z,37.41
2019-05-01T12:03:28.775Z,36.61
2019-05-01T12:05:37.003Z,39.44
2019-05-01T12:07:44.841Z,36.74
2019-05-01T12:09:52.625Z,38.12
2019-05-01T12:12:02.166Z,38.46
2019-05-01T12:14:10.221Z,37.65
2019-05-01T12:16:27.111Z,37.90
2019-05-01T12:18:35.999Z,35.67
2019-05-01T12:20:43.882Z,36.97
2019-05-01T12:22:51.788Z,37.05
2019-05-01T12:25:00.831Z,35.57
2019-05-01T12:27:08.761Z,35.38
2019-05-01T12:29:16.747Z,37.59
2019-05-01T12:31:24.573Z,36.47
2019-05-01T12:33:32.351Z,35.41
2019-05-01T12:35:40.352Z,35.48
2019-05-01T12:37:48.377Z,35.18
2019-05-01T12:39:57.316Z,34.07
2019-05-01T12:42:05.271Z,34.91
2019-05-01T12:44:13.074Z,33.44
2019-05-01T12:46:38.729Z,34.26
2019-05-01T12:48:47.708Z,32.92
2019-05-01T12:50:55.677Z,35.05
2019-05-01T12:53:17.033Z,35.20
2019-05-01T12:55:25.000Z,33.21
2019-05-01T12:57:33.491Z,31.38
2019-05-01T12:59:43.114Z,33.27
2019-05-01T13:01:51.105Z,35.62
2019-05-01T13:03:59.863Z,33.14
2019-05-01T13:06:14.420Z,32.71
2019-05-01T13:08:23.383Z,32.14
2019-05-01T13:10:32.595Z,31.70
2019-05-01T13:12:40.881Z,32.83
2019-05-01T13:14:48.921Z,31.13
2019-05-01T13:16:56.743Z,33.33
2019-05-01T13:19:04.824Z,31.36
2019-05-01T13:21:12.699Z,31.70
2019-05-01T13:23:20.514Z,33.08
2019-05-01T13:25:29.219Z,30.20
2019-05-01T13:27:49.303Z,31.14
2019-05-01T13:30:08.533Z,31.01
2019-05-01T13:32:37.470Z,29.63
2019-05-01T13:34:45.777Z,28.77
2019-05-01T13:37:02.754Z,30.61
2019-05-01T13:39:09.551Z,28.96
2019-05-01T13:41:17.547Z,30.50
2019-05-01T13:43:25.386Z,28.58
2019-05-01T13:45:33.260Z,30.07
2019-05-01T13:47:42.135Z,28.23
2019-05-01T13:49:50.116Z,27.77
2019-05-01T13:51:58.067Z,27.81
2019-05-01T13:54:07.061Z,25.42
2019-05-01T13:56:15.037Z,26.72
2019-05-01T13:58:22.925Z,28.62
2019-05-01T14:00:32.029Z,26.44
2019-05-01T14:02:39.832Z,26.52
2019-05-01T14:04:47.606Z,27.10
2019-05-01T14:06:55.582Z,26.01
2019-05-01T14:09:06.025Z,26.21
2019-05-01T14:11:15.899Z,26.82
2019-05-01T14:13:24.551Z,26.24
2019-05-01T14:15:32.981Z,28.38
2019-05-01T14:17:42.379Z,26.25
2019-05-01T14:19:58.722Z,25.75
2019-05-01T14:22:09.263Z,25.57
2019-05-01T14:24:28.836Z,28.97
2019-05-01T14:26:37.107Z,28.43
2019-05-01T14:28:45.465Z,28.15
2019-05-01T14:30:53.869Z,30.06
2019-05-01T14:33:02.096Z,28.71
2019-05-01T14:35:11.173Z,27.56
2019-05-01T14:37:29.493Z,29.56
2019-05-01T14:39:31.101Z,29.90
2019-05-01T14:41:39.971Z,29.35
2019-05-01T14:43:48.571Z,31.77
2019-05-01T14:45:57.032Z,29.32
2019-05-01T14:48:05.475Z,30.78
2019-05-01T14:50:14.237Z,30.10
2019-05-01T14:52:22.699Z,31.03
2019-05-01T14:54:31.326Z,30.50
2019-05-01T14:56:39.974Z,31.22
2019-05-01T14:58:48.486Z,29.49
2019-05-01T15:00:59.414Z,29.78
2019-05-01T15:03:08.002Z,30.95
2019-05-01T15:05:16.715Z,30.03
2019-05-01T15:07:25.143Z,30.51
2019-05-01T15:09:33.637Z,32.18
2019-05-01T15:11:42.885Z,30.14
2019-05-01T15:14:05.402Z,31.04
2019-05-01T15:16:31.666Z,30.02
2019-05-01T15:18:54.128Z,31.21
2019-05-01T15:21:06.530Z,30.23
2019-05-01T15:23:17.502Z,31.07
2019-05-01T15:25:25.882Z,30.92
2019-05-01T15:27:34.743Z,31.08
2019-05-01T15:29:43.006Z,31.51
2019-05-01T15:31:51.878Z,32.43
2019-05-01T15:33:59.861Z,31.20
2019-05-01T15:36:09.114Z,30.74
2019-05-01T15:38:17.065Z,31.69
2019-05-01T15:40:32.336Z,31.50
2019-05-01T15:42:50.869Z,30.74
2019-05-01T15:44:59.147Z,32.96
2019-05-01T15:47:07.119Z,31.91
2019-05-01T15:49:16.138Z,33.07
2019-05-01T15:51:23.991Z,31.16
2019-05-01T15:53:31.948Z,31.77
2019-05-01T15:55:39.900Z,32.38
2019-05-01T15:57:47.784Z,33.04
2019-05-01T15:59:56.272Z,32.91
2019-05-01T16:02:05.178Z,35.09
2019-05-01T16:04:13.763Z,32.08
2019-05-01T16:06:22.055Z,32.26
2019-05-01T16:08:29.952Z,32.19
2019-05-01T16:10:48.695Z,33.24
2019-05-01T16:12:58.551Z,33.23
2019-05-01T16:15:11.448Z,33.50
2019-05-01T16:17:20.155Z,34.36
2019-05-01T16:19:29.671Z,32.81
2019-05-01T16:21:39.878Z,33.86
2019-05-01T16:23:47.836Z,34.50
2019-05-01T16:25:56.113Z,32.93
2019-05-01T16:28:04.869Z,32.93
2019-05-01T16:30:15.781Z,33.92
2019-05-01T16:32:24.651Z,34.10
2019-05-01T16:34:33.463Z,33.30
2019-05-01T16:36:42.381Z,32.58
2019-05-01T16:38:52.715Z,34.36
2019-05-01T16:41:03.353Z,33.61
2019-05-01T16:43:12.913Z,33.29
2019-05-01T16:45:22.134Z,33.45
2019-05-01T16:47:30.610Z,34.34
2019-05-01T16:49:40.882Z,34.01
2019-05-01T16:51:48.899Z,34.10
2019-05-01T16:53:57.715Z,34.73
2019-05-01T16:56:06.318Z,34.97
2019-05-01T16:58:16.229Z,33.93
2019-05-01T17:00:59.492Z,34.09
2019-05-01T17:03:19.108Z,34.52
2019-05-01T17:05:33.189Z,34.42
2019-05-01T17:07:59.682Z,33.82
2019-05-01T17:10:14.397Z,35.29
2019-05-01T17:12:24.932Z,34.64
2019-05-01T17:14:33.730Z,34.85
2019-05-01T17:16:41.757Z,35.55
2019-05-01T17:18:52.354Z,35.84
2019-05-01T17:21:01.317Z,36.05
2019-05-01T17:23:09.701Z,35.79
2019-05-01T17:25:18.313Z,36.52
2019-05-01T17:27:27.526Z,36.75
2019-05-01T17:29:35.632Z,36.55
2019-05-01T17:31:45.475Z,36.89
2019-05-01T17:33:55.464Z,36.44
2019-05-01T17:36:06.638Z,35.79
2019-05-01T17:38:15.099Z,36.50
2019-05-01T17:40:24.950Z,36.98
2019-05-01T17:42:37.741Z,37.30
2019-05-01T17:44:47.055Z,37.25
2019-05-01T17:46:55.357Z,37.37
2019-05-01T17:49:09.152Z,37.58
2019-05-01T17:51:19.787Z,37.17
2019-05-01T17:53:29.547Z,37.67
2019-05-01T17:55:37.589Z,38.09
2019-05-01T17:57:49.361Z,37.74
2019-05-01T17:59:59.501Z,38.11
2019-05-01T18:02:10.127Z,38.05
2019-05-01T18:04:26.473Z,38.24
2019-05-01T18:06:37.083Z,37.80
2019-05-01T18:08:45.660Z,38.14
2019-05-01T18:10:54.531Z,38.13
2019-05-01T18:13:03.813Z,38.67
2019-05-01T18:15:13.188Z,37.88
2019-05-01T18:17:21.174Z,38.94
2019-05-01T18:19:30.074Z,39.44
2019-05-01T18:21:38.789Z,40.33
2019-05-01T18:24:00.718Z,40.78
2019-05-01T18:26:16.709Z,41.29
2019-05-01T18:28:43.463Z,41.32
2019-05-01T18:30:56.510Z,41.09
2019-05-01T18:33:02.836Z,40.48
2019-05-01T18:35:14.061Z,40.26
2019-05-01T18:37:34.671Z,40.35
2019-05-01T18:39:43.204Z,40.32
2019-05-01T18:41:54.307Z,40.36
2019-05-01T18:44:05.316Z,40.49
2019-05-01T18:46:12.512Z,42.48
2019-05-01T18:48:21.927Z,43.33
2019-05-01T18:50:30.047Z,44.38
2019-05-01T18:52:38.563Z,43.60
2019-05-01T18:54:46.891Z,43.35
2019-05-01T18:56:55.405Z,43.06
2019-05-01T18:59:04.950Z,42.91
2019-05-01T19:01:14.343Z,43.09
2019-05-01T19:03:22.711Z,44.81
2019-05-01T19:05:31.117Z,45.74
2019-05-01T19:07:42.533Z,45.67
2019-05-01T19:09:51.193Z,45.25
2019-05-01T19:14:37.875Z,45.37
2019-05-01T19:16:47.173Z,45.65
2019-05-01T19:18:55.653Z,46.25
2019-05-01T19:21:04.038Z,47.57
2019-05-01T19:23:13.672Z,47.55
2019-05-01T19:25:23.328Z,46.93
2019-05-01T19:27:31.539Z,46.68
2019-05-01T19:29:39.880Z,46.93
2019-05-01T19:31:49.422Z,46.90
2019-05-01T19:33:57.876Z,47.40
2019-05-01T19:36:08.258Z,47.40
2019-05-01T19:38:16.704Z,47.44
2019-05-01T19:40:30.410Z,47.65
2019-05-01T19:42:34.946Z,47.62
2019-05-01T19:44:43.589Z,47.79
2019-05-01T19:46:51.725Z,48.38
2019-05-01T19:49:01.197Z,49.15
2019-05-01T19:51:11.313Z,49.74
2019-05-01T19:53:19.925Z,50.20
2019-05-01T19:55:28.606Z,49.57
2019-05-01T19:57:36.932Z,49.41
2019-05-01T19:59:45.633Z,48.60
2019-05-01T20:01:54.977Z,48.58
2019-05-01T20:04:03.723Z,48.19
2019-05-01T20:06:17.542Z,48.21
2019-05-01T20:08:25.923Z,48.68
2019-05-01T20:10:33.786Z,49.39
2019-05-01T20:12:41.688Z,49.19
2019-05-01T20:14:49.549Z,48.87
2019-05-01T20:16:57.445Z,48.63
2019-05-01T20:19:05.566Z,48.67
2019-05-01T20:21:13.657Z,49.07
2019-05-01T20:23:26.188Z,49.02
2019-05-01T20:25:31.962Z,49.06
2019-05-01T20:27:42.836Z,48.93
2019-05-01T20:29:49.733Z,48.82
2019-05-01T20:31:57.564Z,48.72
2019-05-01T20:34:05.836Z,49.01
2019-05-01T20:36:13.811Z,49.63
2019-05-01T20:38:21.730Z,50.49
2019-05-01T20:40:29.619Z,50.38
2019-05-01T20:42:37.691Z,50.89
2019-05-01T20:44:45.667Z,51.18
2019-05-01T20:46:53.528Z,51.15
2019-05-01T20:49:06.275Z,52.08
2019-05-01T20:51:11.505Z,52.39
2019-05-01T20:53:19.849Z,51.94
2019-05-01T20:55:27.741Z,51.53
2019-05-01T20:57:43.348Z,52.03
2019-05-01T20:59:51.229Z,52.19
2019-05-01T21:02:07.782Z,52.11
2019-05-01T21:04:09.328Z,52.38
2019-05-01T21:06:19.781Z,52.80
2019-05-01T21:08:34.293Z,52.88
2019-05-01T21:10:52.201Z,53.14
2019-05-01T21:13:00.361Z,52.90
2019-05-01T21:15:08.736Z,53.11
2019-05-01T21:17:16.649Z,53.20
2019-05-01T21:19:25.732Z,53.58
2019-05-01T21:21:34.520Z,53.62
2019-05-01T21:23:43.468Z,53.62
2019-05-01T21:25:53.738Z,53.54
2019-05-01T21:28:01.379Z,53.59
2019-05-01T21:30:09.936Z,53.58
2019-05-01T21:32:18.469Z,54.13
2019-05-01T21:34:27.706Z,53.82
2019-05-01T21:36:36.229Z,53.69
2019-05-01T21:38:44.179Z,54.00
2019-05-01T21:40:53.812Z,54.90
2019-05-01T21:43:03.104Z,54.96
2019-05-01T21:45:12.802Z,55.22
2019-05-01T21:47:20.767Z,55.68
2019-05-01T21:49:28.980Z,55.70
2019-05-01T21:51:37.014Z,56.28
2019-05-01T21:53:46.869Z,56.52
2019-05-01T21:56:02.274Z,56.62
2019-05-01T21:58:08.191Z,57.82
2019-05-01T22:00:20.012Z,58.14
2019-05-01T22:02:28.493Z,57.77
2019-05-01T22:04:36.931Z,57.72
2019-05-01T22:06:51.579Z,57.67
2019-05-01T22:08:55.789Z,58.67
2019-05-01T22:11:05.189Z,59.17
2019-05-01T22:13:14.926Z,59.38
2019-05-01T22:15:30.557Z,59.67
2019-05-01T22:17:52.129Z,59.91
2019-05-01T22:20:00.211Z,61.51
2019-05-01T22:22:25.003Z,61.42
2019-05-01T22:24:37.085Z,62.63
2019-05-01T22:26:46.636Z,63.11
2019-05-01T22:29:08.057Z,63.69
2019-05-01T22:31:16.733Z,64.10
2019-05-01T22:33:26.467Z,64.70
2019-05-01T22:35:39.015Z,64.66
2019-05-01T22:37:46.996Z,64.49
2019-05-01T22:39:59.176Z,64.75
2019-05-01T22:42:07.181Z,65.32
2019-05-01T22:44:18.061Z,64.94
2019-05-01T22:46:26.513Z,65.04
2019-05-01T22:48:35.968Z,65.58
2019-05-01T22:50:44.337Z,65.36
2019-05-01T22:52:52.540Z,66.15
2019-05-01T22:55:00.607Z,66.49
2019-05-01T22:57:09.560Z,66.70
2019-05-01T22:59:17.749Z,68.23
2019-05-01T23:01:26.880Z,68.16
2019-05-01T23:03:41.170Z,68.25
2019-05-01T23:05:50.383Z,67.74
2019-05-01T23:07:58.749Z,69.45
2019-05-01T23:10:10.763Z,69.67
2019-05-01T23:12:19.065Z,70.23
2019-05-01T23:14:28.169Z,70.73
2019-05-01T23:16:37.867Z,70.21
2019-05-01T23:18:47.111Z,71.71
2019-05-01T23:20:55.607Z,71.78
2019-05-01T23:23:03.368Z,73.31
2019-05-01T23:25:11.597Z,74.57
2019-05-01T23:27:19.438Z,74.73
2019-05-01T23:29:27.423Z,76.28
2019-05-01T23:31:35.311Z,77.67
2019-05-01T23:33:45.742Z,77.46
2019-05-01T23:35:52.812Z,78.44
2019-05-01T23:38:00.674Z,78.94
2019-05-01T23:40:11.009Z,78.64
2019-05-01T23:42:20.186Z,78.37
2019-05-01T23:44:28.068Z,79.00
2019-05-01T23:46:35.919Z,79.32
2019-05-01T23:48:43.678Z,78.78
2019-05-01T23:50:51.766Z,78.03
2019-05-01T23:52:59.704Z,77.95
2019-05-01T23:55:08.682Z,77.75
2019-05-01T23:57:18.796Z,78.30
2019-05-01T23:59:26.195Z,78.21
